createdAt,value
2019-06-27T00:00:01.483Z,0.00
2019-06-27T00:01:22.445Z,0.00
2019-06-27T00:02:01.437Z,0.00
2019-06-27T00:03:01.415Z,0.00
2019-06-27T00:04:01.409Z,0.00
2019-06-27T00:05:01.390Z,0.00
2019-06-27T00:06:01.379Z,0.00
2019-06-27T00:07:22.350Z,0.00
2019-06-27T00:08:01.355Z,0.00
2019-06-27T00:09:01.339Z,0.00
2019-06-27T00:10:01.322Z,0.00
2019-06-27T00:11:01.291Z,0.00
2019-06-27T00:12:01.284Z,0.00
2019-06-27T00:13:22.273Z,0.00
2019-06-27T00:14:01.248Z,0.00
2019-06-27T00:15:01.251Z,0.00
2019-06-27T00:16:01.213Z,0.00
2019-06-27T00:17:01.206Z,0.00
2019-06-27T00:18:01.188Z,0.00
2019-06-27T00:19:22.188Z,0.00
2019-06-27T00:20:01.170Z,0.00
2019-06-27T00:21:01.136Z,0.00
2019-06-27T00:22:01.152Z,0.00
2019-06-27T00:23:01.105Z,0.00
2019-06-27T00:24:01.094Z,0.00
2019-06-27T00:25:22.126Z,0.00
2019-06-27T00:26:01.059Z,0.00
2019-06-27T00:27:01.043Z,0.00
2019-06-27T00:28:01.042Z,0.00
2019-06-27T00:29:01.017Z,0.00
2019-06-27T00:30:01.005Z,0.00
2019-06-27T00:31:22.048Z,0.00
2019-06-27T00:32:00.967Z,0.00
2019-06-27T00:33:00.943Z,0.00
2019-06-27T00:34:00.933Z,0.00
2019-06-27T00:35:00.919Z,0.00
2019-06-27T00:36:00.900Z,0.00
2019-06-27T00:37:21.902Z,0.00
2019-06-27T00:38:00.879Z,0.00
2019-06-27T00:39:00.859Z,0.00
2019-06-27T00:40:00.864Z,0.00
2019-06-27T00:41:00.836Z,0.00
2019-06-27T00:42:00.816Z,0.00
2019-06-27T00:43:21.866Z,0.00
2019-06-27T00:44:00.783Z,0.00
2019-06-27T00:45:00.757Z,0.00
2019-06-27T00:46:00.749Z,0.00
2019-06-27T00:47:00.721Z,0.00
2019-06-27T00:48:00.718Z,0.00
2019-06-27T00:49:21.701Z,0.00
2019-06-27T00:50:00.701Z,0.00
2019-06-27T00:51:00.668Z,0.00
2019-06-27T00:52:00.650Z,0.00
2019-06-27T00:53:00.628Z,0.00
2019-06-27T00:54:00.627Z,0.00
2019-06-27T00:55:21.620Z,0.00
2019-06-27T00:56:00.590Z,0.00
2019-06-27T00:57:13.358Z,0.00
2019-06-27T00:58:00.576Z,0.00
2019-06-27T00:59:00.539Z,0.00
2019-06-27T01:00:00.519Z,0.00
2019-06-27T01:01:21.513Z,0.00
2019-06-27T01:02:00.501Z,0.00
2019-06-27T01:03:00.489Z,0.00
2019-06-27T01:04:00.463Z,0.00
2019-06-27T01:05:00.438Z,0.00
2019-06-27T01:06:00.449Z,0.00
2019-06-27T01:07:21.430Z,0.00
2019-06-27T01:08:00.389Z,0.00
2019-06-27T01:09:00.377Z,0.00
2019-06-27T01:10:01.278Z,0.00
2019-06-27T01:11:00.360Z,0.00
2019-06-27T01:12:00.324Z,0.00
2019-06-27T01:13:21.323Z,0.00
2019-06-27T01:14:00.299Z,0.00
2019-06-27T01:15:00.300Z,0.00
2019-06-27T01:16:00.265Z,0.00
2019-06-27T01:17:00.319Z,0.00
2019-06-27T01:18:00.241Z,0.00
2019-06-27T01:19:21.224Z,0.00
2019-06-27T01:20:00.305Z,0.00
2019-06-27T01:21:00.189Z,0.00
2019-06-27T01:22:00.165Z,0.00
2019-06-27T01:23:00.210Z,0.00
2019-06-27T01:24:00.187Z,0.00
2019-06-27T01:25:21.138Z,0.00
2019-06-27T01:26:00.125Z,0.00
2019-06-27T01:27:00.090Z,0.00
2019-06-27T01:28:00.068Z,0.00
2019-06-27T01:29:00.085Z,0.00
2019-06-27T01:30:00.043Z,0.00
2019-06-27T01:31:21.048Z,0.00
2019-06-27T01:32:00.027Z,0.00
2019-06-27T01:32:59.999Z,0.00
2019-06-27T01:34:00.011Z,0.00
2019-06-27T01:34:59.975Z,0.00
2019-06-27T01:36:00.728Z,0.00
2019-06-27T01:37:21.697Z,0.00
2019-06-27T01:37:59.905Z,0.00
2019-06-27T01:38:59.893Z,0.00
2019-06-27T01:39:59.864Z,0.00
2019-06-27T01:40:59.849Z,0.00
2019-06-27T01:41:59.835Z,0.00
2019-06-27T01:43:20.833Z,0.00
2019-06-27T01:43:59.809Z,0.00
2019-06-27T01:44:59.789Z,0.00
2019-06-27T01:45:59.770Z,0.00
2019-06-27T01:46:59.763Z,0.00
2019-06-27T01:47:59.741Z,0.00
2019-06-27T01:49:20.751Z,0.00
2019-06-27T01:49:59.762Z,0.00
2019-06-27T01:50:59.700Z,0.00
2019-06-27T01:51:59.691Z,0.00
2019-06-27T01:52:59.665Z,0.00
2019-06-27T01:53:59.645Z,0.00
2019-06-27T01:55:20.628Z,0.00
2019-06-27T01:55:59.632Z,0.00
2019-06-27T01:56:59.592Z,0.00
2019-06-27T01:57:59.568Z,0.00
2019-06-27T01:58:59.556Z,0.00
2019-06-27T01:59:59.578Z,0.00
2019-06-27T02:01:20.538Z,0.00
2019-06-27T02:01:59.532Z,0.00
2019-06-27T02:02:59.487Z,0.00
2019-06-27T02:03:59.491Z,0.00
2019-06-27T02:04:59.460Z,0.00
2019-06-27T02:05:59.449Z,0.00
2019-06-27T02:07:20.437Z,0.00
2019-06-27T02:07:59.409Z,0.00
2019-06-27T02:08:59.673Z,0.00
2019-06-27T02:09:59.363Z,0.00
2019-06-27T02:10:59.362Z,0.00
2019-06-27T02:11:59.329Z,0.00
2019-06-27T02:13:20.344Z,0.00
2019-06-27T02:13:59.305Z,0.00
2019-06-27T02:14:59.300Z,0.00
2019-06-27T02:15:59.295Z,0.00
2019-06-27T02:16:59.253Z,0.00
2019-06-27T02:17:59.250Z,0.00
2019-06-27T02:19:20.226Z,0.00
2019-06-27T02:19:59.197Z,0.00
2019-06-27T02:20:59.194Z,0.00
2019-06-27T02:21:59.164Z,0.00
2019-06-27T02:22:59.169Z,0.00
2019-06-27T02:23:59.153Z,0.00
2019-06-27T02:25:20.120Z,0.00
2019-06-27T02:25:59.095Z,4.00
2019-06-27T02:26:59.107Z,4.00
2019-06-27T02:28:03.634Z,4.00
2019-06-27T02:28:59.059Z,4.00
2019-06-27T02:29:59.046Z,4.00
2019-06-27T02:31:20.025Z,4.00
2019-06-27T02:31:59.000Z,4.00
2019-06-27T02:32:59.365Z,4.00
2019-06-27T02:33:58.961Z,4.00
2019-06-27T02:34:58.943Z,8.00
2019-06-27T02:35:58.934Z,8.00
2019-06-27T02:37:19.921Z,8.00
2019-06-27T02:37:58.893Z,12.00
2019-06-27T02:38:58.879Z,12.00
2019-06-27T02:39:58.871Z,12.00
2019-06-27T02:40:59.167Z,16.00
2019-06-27T02:41:58.825Z,20.00
2019-06-27T02:43:19.823Z,20.00
2019-06-27T02:43:58.806Z,24.00
2019-06-27T02:44:58.801Z,24.00
2019-06-27T02:45:58.783Z,28.00
2019-06-27T02:46:58.753Z,32.00
2019-06-27T02:47:58.716Z,36.00
2019-06-27T02:49:19.728Z,40.00
2019-06-27T02:49:58.684Z,48.00
2019-06-27T02:50:58.682Z,56.00
2019-06-27T02:51:58.660Z,60.00
2019-06-27T02:52:58.644Z,68.00
2019-06-27T02:53:59.963Z,76.00
2019-06-27T02:55:19.616Z,84.00
2019-06-27T02:55:58.631Z,96.00
2019-06-27T02:56:58.563Z,108.00
2019-06-27T02:57:58.570Z,116.00
2019-06-27T02:58:58.534Z,128.00
2019-06-27T02:59:58.514Z,144.00
2019-06-27T03:01:19.506Z,160.00
2019-06-27T03:01:58.489Z,176.00
2019-06-27T03:02:58.477Z,196.00
2019-06-27T03:03:58.475Z,216.00
2019-06-27T03:04:58.451Z,236.00
2019-06-27T03:05:58.419Z,256.00
2019-06-27T03:07:19.403Z,280.00
2019-06-27T03:07:58.375Z,304.00
2019-06-27T03:08:58.378Z,332.00
2019-06-27T03:09:58.388Z,364.00
2019-06-27T03:10:58.331Z,392.00
2019-06-27T03:12:00.311Z,420.00
2019-06-27T03:13:19.319Z,456.00
2019-06-27T03:13:58.278Z,492.00
2019-06-27T03:14:58.247Z,532.00
2019-06-27T03:15:58.250Z,568.00
2019-06-27T03:16:58.221Z,612.00
2019-06-27T03:17:58.210Z,652.00
2019-06-27T03:19:19.191Z,700.00
2019-06-27T03:19:58.171Z,744.00
2019-06-27T03:20:58.163Z,792.00
2019-06-27T03:21:58.133Z,840.00
2019-06-27T03:22:58.135Z,892.00
2019-06-27T03:23:58.102Z,940.00
2019-06-27T03:25:19.076Z,992.00
2019-06-27T03:25:58.080Z,1044.00
2019-06-27T03:26:58.672Z,1100.00
2019-06-27T03:27:58.022Z,1152.00
2019-06-27T03:28:58.009Z,1208.00
2019-06-27T03:29:58.012Z,1260.00
2019-06-27T03:31:18.975Z,1312.00
2019-06-27T03:31:57.962Z,1368.00
2019-06-27T03:32:57.936Z,1428.00
2019-06-27T03:33:57.941Z,1484.00
2019-06-27T03:34:57.915Z,1548.00
2019-06-27T03:35:57.906Z,1616.00
2019-06-27T03:37:18.873Z,1688.00
2019-06-27T03:37:57.853Z,1760.00
2019-06-27T03:38:57.830Z,1816.00
2019-06-27T03:39:57.911Z,1860.00
2019-06-27T03:40:57.803Z,1904.00
2019-06-27T03:41:57.788Z,1944.00
2019-06-27T03:43:18.772Z,1988.00
2019-06-27T03:43:57.749Z,2028.00
2019-06-27T03:44:57.729Z,2052.00
2019-06-27T03:45:57.706Z,2092.00
2019-06-27T03:46:57.700Z,2128.00
2019-06-27T03:47:57.682Z,2188.00
2019-06-27T03:49:18.659Z,2260.00
2019-06-27T03:49:57.655Z,2344.00
2019-06-27T03:50:57.614Z,2404.00
2019-06-27T03:51:57.601Z,2468.00
2019-06-27T03:52:57.574Z,2528.00
2019-06-27T03:53:57.567Z,2596.00
2019-06-27T03:55:18.564Z,2676.00
2019-06-27T03:55:57.521Z,2764.00
2019-06-27T03:56:57.504Z,2872.00
2019-06-27T03:57:57.485Z,2964.00
2019-06-27T03:59:11.299Z,3060.00
2019-06-27T03:59:57.458Z,3196.00
2019-06-27T04:01:18.446Z,3340.00
2019-06-27T04:01:57.422Z,3440.00
2019-06-27T04:02:57.420Z,3556.00
2019-06-27T04:03:57.390Z,3620.00
2019-06-27T04:04:57.371Z,3720.00
2019-06-27T04:05:57.351Z,3768.00
2019-06-27T04:07:18.345Z,3940.00
2019-06-27T04:07:57.323Z,3980.00
2019-06-27T04:08:57.301Z,4056.00
2019-06-27T04:09:57.284Z,4112.00
2019-06-27T04:10:57.281Z,4172.00
2019-06-27T04:11:57.279Z,4260.00
2019-06-27T04:13:18.227Z,4360.00
2019-06-27T04:13:57.214Z,4448.00
2019-06-27T04:14:57.189Z,4532.00
2019-06-27T04:15:57.208Z,4552.00
2019-06-27T04:16:57.172Z,4548.00
2019-06-27T04:17:57.132Z,4496.00
2019-06-27T04:19:18.129Z,4508.00
2019-06-27T04:19:57.110Z,4460.00
2019-06-27T04:20:57.103Z,4428.00
2019-06-27T04:21:57.070Z,4512.00
2019-06-27T04:22:57.061Z,4576.00
2019-06-27T04:23:57.037Z,4604.00
2019-06-27T04:25:18.025Z,4720.00
2019-06-27T04:25:57.009Z,4892.00
2019-06-27T04:26:56.992Z,4964.00
2019-06-27T04:27:59.885Z,5020.00
2019-06-27T04:28:56.960Z,5124.00
2019-06-27T04:29:56.968Z,5168.00
2019-06-27T04:31:17.930Z,5168.00
2019-06-27T04:31:56.914Z,5100.00
2019-06-27T04:32:56.878Z,4960.00
2019-06-27T04:33:56.882Z,5024.00
2019-06-27T04:34:56.869Z,5344.00
2019-06-27T04:35:56.835Z,5676.00
2019-06-27T04:37:17.821Z,5812.00
2019-06-27T04:37:56.796Z,5800.00
2019-06-27T04:38:56.796Z,5908.00
2019-06-27T04:39:56.767Z,6124.00
2019-06-27T04:40:56.746Z,6136.00
2019-06-27T04:41:56.752Z,6148.00
2019-06-27T04:43:17.732Z,6240.00
2019-06-27T04:43:56.698Z,6592.00
2019-06-27T04:44:56.699Z,6732.00
2019-06-27T04:45:56.671Z,6612.00
2019-06-27T04:46:56.648Z,7048.00
2019-06-27T04:47:56.643Z,7444.00
2019-06-27T04:49:17.619Z,7728.00
2019-06-27T04:49:56.596Z,8216.00
2019-06-27T04:50:56.577Z,8592.00
2019-06-27T04:51:56.559Z,8940.00
2019-06-27T04:52:56.552Z,9272.00
2019-06-27T04:53:56.525Z,9536.00
2019-06-27T04:55:17.523Z,9452.00
2019-06-27T04:55:56.538Z,9744.00
2019-06-27T04:56:56.494Z,9472.00
2019-06-27T04:57:56.474Z,9336.00
2019-06-27T04:58:56.467Z,9592.00
2019-06-27T04:59:56.444Z,9508.00
2019-06-27T05:01:17.422Z,9660.00
2019-06-27T05:01:56.412Z,9524.00
2019-06-27T05:02:56.407Z,9728.00
2019-06-27T05:03:56.373Z,9900.00
2019-06-27T05:04:56.376Z,9960.00
2019-06-27T05:05:56.334Z,10024.00
2019-06-27T05:07:17.313Z,10396.00
2019-06-27T05:07:56.392Z,10884.00
2019-06-27T05:08:56.289Z,10944.00
2019-06-27T05:09:56.321Z,10932.00
2019-06-27T05:10:56.251Z,10988.00
2019-06-27T05:11:56.250Z,11124.00
2019-06-27T05:13:17.241Z,11356.00
2019-06-27T05:13:56.211Z,11624.00
2019-06-27T05:14:56.200Z,11736.00
2019-06-27T05:15:56.177Z,11904.00
2019-06-27T05:16:56.151Z,11756.00
2019-06-27T05:17:56.153Z,11988.00
2019-06-27T05:19:17.142Z,11740.00
2019-06-27T05:19:56.115Z,11508.00
2019-06-27T05:20:56.115Z,11876.00
2019-06-27T05:21:56.086Z,11980.00
2019-06-27T05:22:56.062Z,12076.00
2019-06-27T05:23:56.056Z,12204.00
2019-06-27T05:25:17.037Z,12252.00
2019-06-27T05:25:56.018Z,12136.00
2019-06-27T05:26:55.997Z,11916.00
2019-06-27T05:27:56.025Z,12104.00
2019-06-27T05:28:56.851Z,12168.00
2019-06-27T05:30:08.732Z,12304.00
2019-06-27T05:31:16.953Z,12700.00
2019-06-27T05:31:55.954Z,12980.00
2019-06-27T05:32:55.952Z,13184.00
2019-06-27T05:33:55.899Z,13408.00
2019-06-27T05:34:55.875Z,13704.00
2019-06-27T05:35:55.863Z,14100.00
2019-06-27T05:37:16.853Z,14632.00
2019-06-27T05:37:55.840Z,15292.00
2019-06-27T05:38:55.806Z,15360.00
2019-06-27T05:39:55.814Z,15560.00
2019-06-27T05:40:56.309Z,15888.00
2019-06-27T05:41:55.773Z,16044.00
2019-06-27T05:43:16.763Z,16436.00
2019-06-27T05:43:55.748Z,16896.00
2019-06-27T05:44:55.722Z,17504.00
2019-06-27T05:45:55.707Z,19136.00
2019-06-27T05:46:55.859Z,24992.00
2019-06-27T05:47:55.675Z,21248.00
2019-06-27T05:49:16.671Z,19296.00
2019-06-27T05:49:55.804Z,23424.00
2019-06-27T05:50:55.647Z,18400.00
2019-06-27T05:51:55.625Z,18496.00
2019-06-27T05:52:55.608Z,20288.00
2019-06-27T05:53:55.593Z,18528.00
2019-06-27T05:55:16.589Z,19392.00
2019-06-27T05:55:55.593Z,23264.00
2019-06-27T05:56:55.557Z,23232.00
2019-06-27T05:57:55.540Z,21952.00
2019-06-27T05:58:55.538Z,20992.00
2019-06-27T05:59:55.789Z,20160.00
2019-06-27T06:01:16.510Z,19264.00
2019-06-27T06:01:55.481Z,18720.00
2019-06-27T06:02:55.493Z,18304.00
2019-06-27T06:03:55.473Z,18208.00
2019-06-27T06:04:55.449Z,18272.00
2019-06-27T06:05:55.463Z,18336.00
2019-06-27T06:07:16.443Z,18432.00
2019-06-27T06:07:55.423Z,18304.00
2019-06-27T06:08:55.410Z,18176.00
2019-06-27T06:09:55.384Z,18208.00
2019-06-27T06:10:55.381Z,18304.00
2019-06-27T06:11:55.366Z,18368.00
2019-06-27T06:13:16.371Z,18336.00
2019-06-27T06:13:55.341Z,18432.00
2019-06-27T06:14:55.334Z,18496.00
2019-06-27T06:15:55.328Z,18528.00
2019-06-27T06:16:55.313Z,18464.00
2019-06-27T06:17:55.294Z,18400.00
2019-06-27T06:19:16.291Z,18400.00
2019-06-27T06:19:55.262Z,18432.00
2019-06-27T06:20:55.258Z,18688.00
2019-06-27T06:21:55.289Z,18848.00
2019-06-27T06:22:55.250Z,18912.00
2019-06-27T06:23:55.237Z,18880.00
2019-06-27T06:25:16.216Z,18912.00
2019-06-27T06:25:55.204Z,19008.00
2019-06-27T06:26:55.216Z,19040.00
2019-06-27T06:27:55.183Z,19136.00
2019-06-27T06:28:55.177Z,19168.00
2019-06-27T06:29:55.170Z,19264.00
2019-06-27T06:31:16.233Z,19424.00
2019-06-27T06:31:58.439Z,19456.00
2019-06-27T06:32:55.146Z,19488.00
2019-06-27T06:33:55.138Z,19520.00
2019-06-27T06:34:55.110Z,19680.00
2019-06-27T06:35:55.093Z,19648.00
2019-06-27T06:37:16.097Z,19648.00
2019-06-27T06:37:55.078Z,20000.00
2019-06-27T06:38:55.089Z,20096.00
2019-06-27T06:39:55.063Z,20320.00
2019-06-27T06:40:55.058Z,20384.00
2019-06-27T06:41:55.048Z,20480.00
2019-06-27T06:43:16.049Z,20608.00
2019-06-27T06:43:55.019Z,20768.00
2019-06-27T06:44:55.020Z,21056.00
2019-06-27T06:45:55.010Z,21248.00
2019-06-27T06:46:55.003Z,21056.00
2019-06-27T06:47:54.990Z,20960.00
2019-06-27T06:49:15.998Z,21088.00
2019-06-27T06:49:54.970Z,21248.00
2019-06-27T06:50:54.954Z,21568.00
2019-06-27T06:51:54.949Z,22240.00
2019-06-27T06:52:54.940Z,24160.00
2019-06-27T06:53:54.932Z,30688.00
2019-06-27T06:55:15.934Z,40512.00
2019-06-27T06:55:54.909Z,49568.00
2019-06-27T06:56:54.906Z,54464.00
2019-06-27T06:57:54.904Z,56480.00
2019-06-27T06:58:54.877Z,59648.00
2019-06-27T06:59:54.878Z,61856.00
2019-06-27T07:01:15.869Z,64128.00
2019-06-27T07:01:54.855Z,62816.00
2019-06-27T07:02:54.845Z,61440.00
2019-06-27T07:03:54.843Z,64768.00
2019-06-27T07:04:54.869Z,64960.00
2019-06-27T07:05:54.838Z,62528.00
2019-06-27T07:07:15.815Z,64704.00
2019-06-27T07:07:54.809Z,70496.00
2019-06-27T07:08:54.795Z,68832.00
2019-06-27T07:09:55.461Z,66368.00
2019-06-27T07:10:54.778Z,69088.00
2019-06-27T07:11:54.768Z,71456.00
2019-06-27T07:13:15.782Z,70656.00
2019-06-27T07:13:54.751Z,69568.00
2019-06-27T07:14:54.756Z,68480.00
2019-06-27T07:15:54.737Z,67360.00
2019-06-27T07:16:54.729Z,67840.00
2019-06-27T07:17:54.714Z,69184.00
2019-06-27T07:19:15.732Z,67648.00
2019-06-27T07:19:57.427Z,68480.00
2019-06-27T07:20:54.704Z,74784.00
2019-06-27T07:21:54.691Z,78656.00
2019-06-27T07:22:54.683Z,76224.00
2019-06-27T07:23:54.678Z,72544.00
2019-06-27T07:25:15.669Z,75552.00
2019-06-27T07:25:54.653Z,78624.00
2019-06-27T07:26:54.661Z,74656.00
2019-06-27T07:27:54.651Z,71328.00
2019-06-27T07:28:54.634Z,77184.00
2019-06-27T07:29:54.624Z,82816.00
2019-06-27T07:31:18.275Z,81024.00
2019-06-27T07:31:54.606Z,79328.00
2019-06-27T07:32:54.601Z,81696.00
2019-06-27T07:33:54.594Z,81440.00
2019-06-27T07:34:54.579Z,79072.00
2019-06-27T07:35:54.576Z,78944.00
2019-06-27T07:37:15.584Z,81344.00
2019-06-27T07:37:54.561Z,84192.00
2019-06-27T07:38:54.559Z,85376.00
2019-06-27T07:39:54.554Z,85216.00
2019-06-27T07:40:54.654Z,85408.00
2019-06-27T07:41:54.541Z,85216.00
2019-06-27T07:43:15.539Z,83424.00
2019-06-27T07:43:54.529Z,81664.00
2019-06-27T07:44:54.510Z,85120.00
2019-06-27T07:45:54.500Z,88704.00
2019-06-27T07:46:54.492Z,87936.00
2019-06-27T07:47:54.492Z,84960.00
2019-06-27T07:49:15.496Z,79360.00
2019-06-27T07:49:54.474Z,81408.00
2019-06-27T07:50:54.491Z,85344.00
2019-06-27T07:51:54.466Z,90080.00
2019-06-27T07:52:54.456Z,92864.00
2019-06-27T07:53:54.462Z,90720.00
2019-06-27T07:55:15.455Z,84032.00
2019-06-27T07:55:54.443Z,79520.00
2019-06-27T07:56:54.427Z,85568.00
2019-06-27T07:57:54.420Z,99872.00
2019-06-27T07:58:54.407Z,103360.00
2019-06-27T07:59:54.409Z,100000.00
2019-06-27T08:01:15.423Z,95456.00
2019-06-27T08:01:54.405Z,93408.00
2019-06-27T08:02:54.383Z,90080.00
2019-06-27T08:03:54.379Z,86848.00
2019-06-27T08:04:54.377Z,87136.00
2019-06-27T08:05:54.563Z,90560.00
2019-06-27T08:07:15.378Z,95168.00
2019-06-27T08:07:54.358Z,97824.00
2019-06-27T08:08:54.351Z,101376.00
2019-06-27T08:09:54.348Z,104128.00
2019-06-27T08:10:54.340Z,104416.00
2019-06-27T08:11:54.367Z,96896.00
2019-06-27T08:13:15.331Z,91168.00
2019-06-27T08:13:54.347Z,92128.00
2019-06-27T08:14:54.309Z,95264.00
2019-06-27T08:15:54.311Z,96544.00
2019-06-27T08:16:54.318Z,93248.00
2019-06-27T08:17:54.298Z,91424.00
2019-06-27T08:19:15.303Z,93408.00
2019-06-27T08:19:54.290Z,94016.00
2019-06-27T08:20:54.328Z,94272.00
2019-06-27T08:21:54.276Z,95552.00
2019-06-27T08:22:54.269Z,97472.00
2019-06-27T08:23:54.253Z,98944.00
2019-06-27T08:25:15.262Z,99520.00
2019-06-27T08:25:54.239Z,98752.00
2019-06-27T08:26:54.255Z,93120.00
2019-06-27T08:27:54.261Z,89600.00
2019-06-27T08:28:54.229Z,92160.00
2019-06-27T08:29:54.224Z,98624.00
2019-06-27T08:31:15.236Z,106240.00
2019-06-27T08:31:54.210Z,107776.00
2019-06-27T08:32:54.214Z,102272.00
2019-06-27T08:33:54.210Z,99456.00
2019-06-27T08:34:54.213Z,100992.00
2019-06-27T08:35:54.196Z,109152.00
2019-06-27T08:37:15.212Z,113856.00
2019-06-27T08:37:54.198Z,113376.00
2019-06-27T08:38:54.181Z,108416.00
2019-06-27T08:39:54.179Z,105504.00
2019-06-27T08:40:54.180Z,106272.00
2019-06-27T08:41:54.168Z,105248.00
2019-06-27T08:43:15.172Z,102784.00
2019-06-27T08:43:54.158Z,101056.00
2019-06-27T08:44:54.145Z,100512.00
2019-06-27T08:45:54.141Z,103136.00
2019-06-27T08:46:54.140Z,107200.00
2019-06-27T08:47:54.130Z,109056.00
2019-06-27T08:49:15.157Z,107264.00
2019-06-27T08:49:54.137Z,107264.00
2019-06-27T08:50:54.129Z,108256.00
2019-06-27T08:51:54.130Z,108736.00
2019-06-27T08:52:54.107Z,108512.00
2019-06-27T08:53:54.100Z,105632.00
2019-06-27T08:55:15.112Z,102464.00
2019-06-27T08:55:54.090Z,97344.00
2019-06-27T08:56:54.104Z,94208.00
2019-06-27T08:57:54.096Z,93632.00
2019-06-27T08:58:54.094Z,93440.00
2019-06-27T08:59:54.080Z,92864.00
2019-06-27T09:01:15.095Z,92896.00
2019-06-27T09:02:07.387Z,97792.00
2019-06-27T09:02:54.085Z,102496.00
2019-06-27T09:03:54.086Z,107040.00
2019-06-27T09:04:54.066Z,109952.00
2019-06-27T09:05:54.050Z,114400.00
2019-06-27T09:07:15.063Z,114880.00
2019-06-27T09:07:54.066Z,114080.00
2019-06-27T09:08:54.035Z,109408.00
2019-06-27T09:09:54.100Z,102720.00
2019-06-27T09:10:54.046Z,97824.00
2019-06-27T09:11:54.031Z,95104.00
2019-06-27T09:13:15.026Z,97632.00
2019-06-27T09:13:54.027Z,103264.00
2019-06-27T09:14:54.009Z,110016.00
2019-06-27T09:15:53.997Z,112032.00
2019-06-27T09:16:54.005Z,107616.00
2019-06-27T09:17:54.007Z,104416.00
2019-06-27T09:19:14.998Z,98752.00
2019-06-27T09:19:53.996Z,97536.00
2019-06-27T09:20:53.983Z,99936.00
2019-06-27T09:21:53.990Z,103904.00
2019-06-27T09:22:53.962Z,108160.00
2019-06-27T09:23:53.981Z,110144.00
2019-06-27T09:25:14.984Z,109920.00
2019-06-27T09:25:53.971Z,108448.00
2019-06-27T09:26:53.965Z,109888.00
2019-06-27T09:27:53.944Z,111328.00
2019-06-27T09:28:53.954Z,115040.00
2019-06-27T09:29:53.975Z,117312.00
2019-06-27T09:31:14.969Z,118272.00
2019-06-27T09:31:53.941Z,118336.00
2019-06-27T09:32:53.957Z,115648.00
2019-06-27T09:33:53.922Z,111232.00
2019-06-27T09:34:53.929Z,110656.00
2019-06-27T09:35:53.914Z,109824.00
2019-06-27T09:37:14.912Z,109632.00
2019-06-27T09:37:53.922Z,107584.00
2019-06-27T09:38:53.894Z,108192.00
2019-06-27T09:39:53.899Z,112096.00
2019-06-27T09:40:53.908Z,117632.00
2019-06-27T09:41:53.898Z,120704.00
2019-06-27T09:43:14.905Z,122560.00
2019-06-27T09:43:53.918Z,122080.00
2019-06-27T09:44:53.886Z,119200.00
2019-06-27T09:45:53.872Z,116864.00
2019-06-27T09:46:53.870Z,113888.00
2019-06-27T09:47:53.867Z,111872.00
2019-06-27T09:49:14.879Z,106560.00
2019-06-27T09:49:53.866Z,104224.00
2019-06-27T09:50:53.868Z,105152.00
2019-06-27T09:51:53.859Z,108992.00
2019-06-27T09:52:53.845Z,117312.00
2019-06-27T09:53:53.858Z,122336.00
2019-06-27T09:55:14.877Z,121824.00
2019-06-27T09:55:53.842Z,114272.00
2019-06-27T09:56:53.856Z,110048.00
2019-06-27T09:57:53.839Z,108416.00
2019-06-27T09:58:53.854Z,109696.00
2019-06-27T09:59:53.834Z,115520.00
2019-06-27T10:01:14.824Z,124256.00
2019-06-27T10:01:53.820Z,130912.00
2019-06-27T10:02:53.826Z,130048.00
2019-06-27T10:03:53.816Z,128224.00
2019-06-27T10:04:53.809Z,127072.00
2019-06-27T10:05:53.813Z,124352.00
2019-06-27T10:07:14.808Z,121952.00
2019-06-27T10:07:53.823Z,119008.00
2019-06-27T10:08:53.793Z,117600.00
2019-06-27T10:09:53.789Z,118912.00
2019-06-27T10:10:53.783Z,122848.00
2019-06-27T10:11:53.786Z,128416.00
2019-06-27T10:13:14.791Z,132064.00
2019-06-27T10:13:53.773Z,133888.00
2019-06-27T10:14:53.797Z,132224.00
2019-06-27T10:15:53.835Z,132192.00
2019-06-27T10:16:53.775Z,137600.00
2019-06-27T10:17:53.757Z,142720.00
2019-06-27T10:19:14.785Z,144608.00
2019-06-27T10:19:53.759Z,142912.00
2019-06-27T10:20:53.754Z,136416.00
2019-06-27T10:21:53.750Z,124000.00
2019-06-27T10:22:53.748Z,114464.00
2019-06-27T10:23:53.752Z,109664.00
2019-06-27T10:25:14.735Z,109952.00
2019-06-27T10:25:53.750Z,116000.00
2019-06-27T10:26:53.735Z,125856.00
2019-06-27T10:27:53.729Z,135520.00
2019-06-27T10:28:53.743Z,145056.00
2019-06-27T10:29:53.730Z,149312.00
2019-06-27T10:31:14.728Z,148544.00
2019-06-27T10:31:53.713Z,147008.00
2019-06-27T10:32:59.305Z,143648.00
2019-06-27T10:33:53.706Z,141472.00
2019-06-27T10:34:53.715Z,135264.00
2019-06-27T10:35:53.700Z,126784.00
2019-06-27T10:37:14.701Z,121088.00
2019-06-27T10:37:53.695Z,120064.00
2019-06-27T10:38:53.690Z,119264.00
2019-06-27T10:39:53.679Z,122816.00
2019-06-27T10:40:53.679Z,128832.00
2019-06-27T10:41:53.682Z,137472.00
2019-06-27T10:43:14.681Z,140480.00
2019-06-27T10:43:53.670Z,137696.00
2019-06-27T10:44:53.687Z,136448.00
2019-06-27T10:45:53.665Z,133856.00
2019-06-27T10:46:53.680Z,130016.00
2019-06-27T10:47:53.674Z,124544.00
2019-06-27T10:49:14.670Z,118464.00
2019-06-27T10:49:53.668Z,113344.00
2019-06-27T10:50:54.777Z,112224.00
2019-06-27T10:51:53.657Z,113056.00
2019-06-27T10:52:53.656Z,114432.00
2019-06-27T10:53:53.652Z,118176.00
2019-06-27T10:55:14.658Z,123552.00
2019-06-27T10:55:53.660Z,125888.00
2019-06-27T10:56:53.659Z,124800.00
2019-06-27T10:57:53.633Z,124192.00
2019-06-27T10:58:53.628Z,121056.00
2019-06-27T10:59:53.625Z,117216.00
2019-06-27T11:01:14.634Z,114720.00
2019-06-27T11:01:53.619Z,112256.00
2019-06-27T11:02:53.604Z,111552.00
2019-06-27T11:03:53.608Z,111776.00
2019-06-27T11:04:53.596Z,115936.00
2019-06-27T11:05:53.647Z,119648.00
2019-06-27T11:07:14.620Z,120448.00
2019-06-27T11:07:53.602Z,125728.00
2019-06-27T11:08:53.596Z,129408.00
2019-06-27T11:09:53.600Z,131840.00
2019-06-27T11:10:53.595Z,129280.00
2019-06-27T11:11:53.577Z,125024.00
2019-06-27T11:13:14.580Z,124480.00
2019-06-27T11:13:58.910Z,126560.00
2019-06-27T11:14:59.331Z,127072.00
2019-06-27T11:15:53.583Z,125888.00
2019-06-27T11:16:53.578Z,125952.00
2019-06-27T11:17:53.589Z,126144.00
2019-06-27T11:19:14.580Z,125408.00
2019-06-27T11:19:53.557Z,126272.00
2019-06-27T11:20:53.567Z,128192.00
2019-06-27T11:21:53.583Z,128736.00
2019-06-27T11:22:53.565Z,123936.00
2019-06-27T11:23:53.570Z,116384.00
2019-06-27T11:25:14.551Z,108768.00
2019-06-27T11:25:53.550Z,102240.00
2019-06-27T11:26:53.543Z,105568.00
2019-06-27T11:27:53.536Z,114496.00
2019-06-27T11:28:53.536Z,127200.00
2019-06-27T11:29:53.542Z,132160.00
2019-06-27T11:31:14.529Z,132192.00
2019-06-27T11:31:53.536Z,127808.00
2019-06-27T11:32:53.534Z,126624.00
2019-06-27T11:33:53.514Z,128192.00
2019-06-27T11:34:53.520Z,129760.00
2019-06-27T11:35:53.507Z,127968.00
2019-06-27T11:37:14.531Z,122176.00
2019-06-27T11:37:53.518Z,119680.00
2019-06-27T11:38:53.513Z,119840.00
2019-06-27T11:39:53.515Z,123456.00
2019-06-27T11:40:53.491Z,124128.00
2019-06-27T11:41:53.489Z,123136.00
2019-06-27T11:43:14.495Z,121216.00
2019-06-27T11:43:53.493Z,119424.00
2019-06-27T11:44:53.488Z,117600.00
2019-06-27T11:45:53.484Z,117888.00
2019-06-27T11:46:53.474Z,118496.00
2019-06-27T11:47:53.474Z,119968.00
2019-06-27T11:49:14.479Z,121888.00
2019-06-27T11:49:53.468Z,121664.00
2019-06-27T11:50:53.462Z,118592.00
2019-06-27T11:51:53.481Z,115840.00
2019-06-27T11:52:53.451Z,114144.00
2019-06-27T11:53:53.476Z,116672.00
2019-06-27T11:55:14.475Z,119776.00
2019-06-27T11:55:53.449Z,122112.00
2019-06-27T11:56:53.581Z,123360.00
2019-06-27T11:57:56.500Z,120096.00
2019-06-27T11:58:53.453Z,115040.00
2019-06-27T11:59:53.446Z,112608.00
2019-06-27T12:01:14.453Z,111488.00
2019-06-27T12:01:53.425Z,111840.00
2019-06-27T12:02:53.433Z,109760.00